createdAt,value
2017-10-06T00:02:10.248Z,98822
2017-10-06T00:04:38.317Z,98826
2017-10-06T00:07:06.395Z,98833
2017-10-06T00:09:34.464Z,98831
2017-10-06T00:12:02.540Z,98846
2017-10-06T00:14:30.633Z,98851
2017-10-06T00:16:59.472Z,98851
2017-10-06T00:19:27.543Z,98848
2017-10-06T00:21:55.628Z,98857
2017-10-06T00:24:23.903Z,98847
2017-10-06T00:26:52.011Z,98857
2017-10-06T00:29:20.864Z,98857
2017-10-06T00:31:48.932Z,98862
2017-10-06T00:34:17.007Z,98851
2017-10-06T00:36:45.076Z,98850
2017-10-06T00:39:19.050Z,98860
2017-10-06T00:41:47.120Z,98860
2017-10-06T00:44:15.196Z,98857
2017-10-06T00:46:43.263Z,98845
2017-10-06T00:49:11.359Z,98855
2017-10-06T00:51:39.444Z,98836
2017-10-06T00:54:07.540Z,98843
2017-10-06T00:56:35.612Z,98842
2017-10-06T00:59:03.696Z,98840
2017-10-06T01:01:31.767Z,98836
2017-10-06T01:03:59.936Z,98842
2017-10-06T01:06:28.008Z,98841
2017-10-06T01:08:56.093Z,98841
2017-10-06T01:11:25.070Z,98837
2017-10-06T01:13:53.152Z,98833
2017-10-06T01:16:21.221Z,98837
2017-10-06T01:18:49.304Z,98830
2017-10-06T01:21:17.368Z,98826
2017-10-06T01:23:45.445Z,98831
2017-10-06T01:26:13.519Z,98828
2017-10-06T01:28:41.603Z,98835
2017-10-06T01:31:10.444Z,98828
2017-10-06T01:33:38.552Z,98829
2017-10-06T01:36:06.624Z,98831
2017-10-06T01:38:34.709Z,98837
2017-10-06T01:41:03.547Z,98832
2017-10-06T01:43:31.635Z,98835
2017-10-06T01:45:59.709Z,98841
2017-10-06T01:48:27.790Z,98834
2017-10-06T01:50:55.856Z,98836
2017-10-06T01:53:23.948Z,98831
2017-10-06T01:55:52.026Z,98836
2017-10-06T01:58:20.099Z,98826
2017-10-06T02:00:48.167Z,98833
2017-10-06T02:03:16.249Z,98838
2017-10-06T02:05:45.095Z,98829
2017-10-06T02:08:13.171Z,98829
2017-10-06T02:10:41.252Z,98828
2017-10-06T02:13:09.340Z,98830
2017-10-06T02:15:38.217Z,98826
2017-10-06T02:18:06.301Z,98822
2017-10-06T02:20:34.380Z,98824
2017-10-06T02:23:02.464Z,98825
2017-10-06T02:25:30.531Z,98819
2017-10-06T02:27:58.608Z,98813
2017-10-06T02:30:26.696Z,98815
2017-10-06T02:32:55.544Z,98817
2017-10-06T02:35:23.608Z,98824
2017-10-06T02:37:51.685Z,98820
2017-10-06T02:40:19.784Z,98830
2017-10-06T02:42:47.864Z,98823
2017-10-06T02:45:16.695Z,98827
2017-10-06T02:47:44.781Z,98828
2017-10-06T02:50:12.849Z,98827
2017-10-06T02:52:40.929Z,98827
2017-10-06T02:55:09.835Z,98818
2017-10-06T02:57:37.932Z,98824
2017-10-06T03:00:06.005Z,98821
2017-10-06T03:02:34.096Z,98825
2017-10-06T03:05:02.937Z,98823
2017-10-06T03:07:31.008Z,98819
2017-10-06T03:09:59.111Z,98826
2017-10-06T03:12:27.184Z,98811
2017-10-06T03:14:55.260Z,98824
2017-10-06T03:17:23.328Z,98826
2017-10-06T03:19:51.404Z,98826
2017-10-06T03:22:19.472Z,98833
2017-10-06T03:24:47.556Z,98835
2017-10-06T03:27:15.648Z,98836
2017-10-06T03:29:43.724Z,98831
2017-10-06T03:32:11.818Z,98832
2017-10-06T03:34:39.885Z,98836
2017-10-06T03:37:07.960Z,98837
2017-10-06T03:39:36.056Z,98837
2017-10-06T03:42:04.172Z,98833
2017-10-06T03:44:33.023Z,98844
2017-10-06T03:47:01.219Z,98842
2017-10-06T03:49:29.296Z,98840
2017-10-06T03:51:57.368Z,98839
2017-10-06T03:54:25.450Z,98841
2017-10-06T03:56:54.297Z,98839
2017-10-06T03:59:22.372Z,98835
2017-10-06T04:01:50.445Z,98829
2017-10-06T04:04:18.529Z,98837
2017-10-06T04:06:46.605Z,98843
2017-10-06T04:09:14.687Z,98834
2017-10-06T04:11:42.752Z,98840
2017-10-06T04:14:10.945Z,98847
2017-10-06T04:16:39.013Z,98847
2017-10-06T04:19:07.864Z,98849
2017-10-06T04:21:35.940Z,98853
2017-10-06T04:24:04.020Z,98847
2017-10-06T04:26:32.091Z,98849
2017-10-06T04:29:00.173Z,98848
2017-10-06T04:31:28.245Z,98851
2017-10-06T04:33:56.328Z,98855
2017-10-06T04:36:24.407Z,98856
2017-10-06T04:38:52.480Z,98850
2017-10-06T04:41:20.559Z,98849
2017-10-06T04:43:48.644Z,98854
2017-10-06T04:46:17.493Z,98852
2017-10-06T04:48:45.580Z,98846
2017-10-06T04:51:13.670Z,98841
2017-10-06T04:53:41.751Z,98848
2017-10-06T04:56:10.595Z,98853
2017-10-06T04:58:38.680Z,98850
2017-10-06T05:01:06.752Z,98849
2017-10-06T05:03:34.833Z,98857
2017-10-06T05:06:02.916Z,98861
2017-10-06T05:08:31.001Z,98866
2017-10-06T05:10:59.844Z,98864
2017-10-06T05:13:27.928Z,98861
2017-10-06T05:15:55.997Z,98870
2017-10-06T05:18:24.080Z,98861
2017-10-06T05:20:52.152Z,98877
2017-10-06T05:23:20.228Z,98846
2017-10-06T05:25:48.312Z,98871
2017-10-06T05:28:16.392Z,98866
2017-10-06T05:30:44.468Z,98873
2017-10-06T05:33:13.307Z,98874
2017-10-06T05:35:41.387Z,98880
2017-10-06T05:38:09.461Z,98874
2017-10-06T05:40:37.545Z,98876
2017-10-06T05:43:05.616Z,98883
2017-10-06T05:45:34.391Z,98883
2017-10-06T05:48:02.464Z,98886
2017-10-06T05:50:30.560Z,98878
2017-10-06T05:52:58.650Z,98879
2017-10-06T05:55:26.720Z,98870
2017-10-06T05:57:54.793Z,98866
2017-10-06T06:00:22.873Z,98869
2017-10-06T06:02:51.720Z,98868
2017-10-06T06:05:19.804Z,98866
2017-10-06T06:07:47.880Z,98871
2017-10-06T06:10:15.968Z,98860
2017-10-06T06:12:44.045Z,98869
2017-10-06T06:15:12.130Z,98858
2017-10-06T06:17:40.972Z,98858
2017-10-06T06:20:09.072Z,98862
2017-10-06T06:22:37.154Z,98881
2017-10-06T06:25:05.234Z,98879
2017-10-06T06:27:34.081Z,98883
2017-10-06T06:30:02.165Z,98882
2017-10-06T06:32:30.237Z,98889
2017-10-06T06:34:58.325Z,98888
2017-10-06T06:37:26.405Z,98882
2017-10-06T06:39:54.480Z,98891
2017-10-06T06:42:22.552Z,98881
2017-10-06T06:44:50.624Z,98881
2017-10-06T06:47:18.696Z,98875
2017-10-06T06:49:46.768Z,98890
2017-10-06T06:52:14.836Z,98886
2017-10-06T06:54:42.917Z,98874
2017-10-06T06:57:10.988Z,98892
2017-10-06T06:59:39.073Z,98883
2017-10-06T07:02:07.920Z,98892
2017-10-06T07:04:36.028Z,98898
2017-10-06T07:07:04.089Z,98890
2017-10-06T07:09:32.172Z,98894
2017-10-06T07:12:00.241Z,98902
2017-10-06T07:14:28.321Z,98889
2017-10-06T07:16:56.402Z,98891
2017-10-06T07:19:25.249Z,98896
2017-10-06T07:21:53.325Z,98898
2017-10-06T07:24:21.405Z,98889
2017-10-06T07:26:49.479Z,98894
2017-10-06T07:29:17.625Z,98897
2017-10-06T07:31:46.460Z,98900
2017-10-06T07:34:14.532Z,98903
2017-10-06T07:36:42.612Z,98906
2017-10-06T07:39:11.449Z,98909
2017-10-06T07:41:40.296Z,98903
2017-10-06T07:44:09.136Z,98911
2017-10-06T07:46:37.980Z,98916
2017-10-06T07:49:06.840Z,98911
2017-10-06T07:51:34.925Z,98915
2017-10-06T07:54:03.001Z,98906
2017-10-06T07:56:31.081Z,98907
2017-10-06T07:58:59.917Z,98900
2017-10-06T08:01:28.014Z,98896
2017-10-06T08:03:56.080Z,98902
2017-10-06T08:06:24.158Z,98916
2017-10-06T08:08:52.244Z,98915
2017-10-06T08:11:20.323Z,98914
2017-10-06T08:13:48.401Z,98913
2017-10-06T08:16:16.472Z,98918
2017-10-06T08:18:44.548Z,98922
2017-10-06T08:21:12.624Z,98926
2017-10-06T08:23:40.704Z,98922
2017-10-06T08:26:09.545Z,98914
2017-10-06T08:28:37.629Z,98908
2017-10-06T08:31:05.697Z,98907
2017-10-06T08:33:33.792Z,98917
2017-10-06T08:36:01.864Z,98921
2017-10-06T08:38:29.944Z,98914
2017-10-06T08:40:58.813Z,98912
2017-10-06T08:43:26.890Z,98913
2017-10-06T08:45:54.971Z,98908
2017-10-06T08:48:23.043Z,98915
2017-10-06T08:50:51.128Z,98909
2017-10-06T08:53:19.200Z,98916
2017-10-06T08:55:47.284Z,98929
2017-10-06T08:58:16.120Z,98933
2017-10-06T09:00:44.211Z,98935
2017-10-06T09:03:12.292Z,98934
2017-10-06T09:05:40.382Z,98937
2017-10-06T09:08:09.231Z,98945
2017-10-06T09:10:37.322Z,98939
2017-10-06T09:13:05.392Z,98934
2017-10-06T09:15:33.496Z,98939
2017-10-06T09:18:02.356Z,98932
2017-10-06T09:20:30.440Z,98937
2017-10-06T09:22:58.512Z,98936
2017-10-06T09:25:26.600Z,98940
2017-10-06T09:27:54.667Z,98945
2017-10-06T09:30:22.756Z,98940
2017-10-06T09:32:51.644Z,98942
2017-10-06T09:35:21.433Z,98931
2017-10-06T09:37:49.510Z,98937
2017-10-06T09:40:17.592Z,98941
2017-10-06T09:42:45.664Z,98932
2017-10-06T09:45:13.745Z,98938
2017-10-06T09:47:42.592Z,98948
2017-10-06T09:50:10.668Z,98945
2017-10-06T09:52:38.745Z,98941
2017-10-06T09:55:06.836Z,98951
2017-10-06T09:57:34.917Z,98942
2017-10-06T10:00:02.999Z,98942
2017-10-06T10:02:31.844Z,98939
2017-10-06T10:04:59.929Z,98934
2017-10-06T10:07:27.996Z,98943
2017-10-06T10:09:56.089Z,98930
2017-10-06T10:12:24.168Z,98933
2017-10-06T10:14:52.468Z,98932
2017-10-06T10:17:21.316Z,98931
2017-10-06T10:19:49.404Z,98949
2017-10-06T10:22:17.484Z,98948
2017-10-06T10:24:45.564Z,98949
2017-10-06T10:27:14.416Z,98946
2017-10-06T10:29:42.514Z,98954
2017-10-06T10:32:10.585Z,98953
2017-10-06T10:34:38.679Z,98960
2017-10-06T10:37:07.528Z,98971
2017-10-06T10:39:35.600Z,98969
2017-10-06T10:42:03.692Z,98968
2017-10-06T10:44:31.767Z,98972
2017-10-06T10:46:59.853Z,98973
2017-10-06T10:49:28.729Z,98961
2017-10-06T10:51:56.830Z,98965
2017-10-06T10:54:25.676Z,98965
2017-10-06T10:56:53.778Z,98960
2017-10-06T10:59:21.855Z,98962
2017-10-06T11:01:50.717Z,98967
2017-10-06T11:04:18.794Z,98957
2017-10-06T11:06:46.872Z,98961
2017-10-06T11:09:14.957Z,98956
2017-10-06T11:11:43.028Z,98953
2017-10-06T11:14:11.105Z,98949
2017-10-06T11:16:39.185Z,98951
2017-10-06T11:19:08.025Z,98953
2017-10-06T11:21:36.112Z,98946
2017-10-06T11:24:04.197Z,98947
2017-10-06T11:26:32.289Z,98956
2017-10-06T11:29:01.137Z,98955
2017-10-06T11:31:29.217Z,98940
2017-10-06T11:33:57.292Z,98947
2017-10-06T11:36:25.388Z,98944
2017-10-06T11:38:53.460Z,98942
2017-10-06T11:41:21.545Z,98936
2017-10-06T11:43:50.392Z,98941
2017-10-06T11:46:18.476Z,98936
2017-10-06T11:48:46.558Z,98939
2017-10-06T11:51:14.640Z,98937
2017-10-06T11:53:42.708Z,98929
2017-10-06T11:56:10.792Z,98923
2017-10-06T11:58:38.868Z,98927
2017-10-06T12:01:07.729Z,98923
2017-10-06T12:03:35.801Z,98919
2017-10-06T12:06:03.894Z,98923
2017-10-06T12:08:31.961Z,98921
2017-10-06T12:11:00.053Z,98920
2017-10-06T12:13:28.902Z,98918
2017-10-06T12:15:56.976Z,98930
2017-10-06T12:18:25.086Z,98925
2017-10-06T12:20:53.944Z,98929
2017-10-06T12:23:22.025Z,98933
2017-10-06T12:25:50.112Z,98931
2017-10-06T12:28:18.189Z,98927
2017-10-06T12:30:46.264Z,98925
2017-10-06T12:33:14.349Z,98930
2017-10-06T12:35:43.204Z,98922
2017-10-06T12:38:11.288Z,98941
2017-10-06T12:40:39.368Z,98924
2017-10-06T12:43:07.449Z,98925
2017-10-06T12:45:36.291Z,98919
2017-10-06T12:48:04.376Z,98921
2017-10-06T12:50:32.456Z,98923
2017-10-06T12:53:00.541Z,98924
2017-10-06T12:55:28.620Z,98927
2017-10-06T12:57:56.700Z,98923
2017-10-06T13:00:24.780Z,98936
2017-10-06T13:02:53.657Z,98927
2017-10-06T13:05:21.732Z,98942
2017-10-06T13:07:49.805Z,98935
2017-10-06T13:10:17.900Z,98936
2017-10-06T13:12:46.776Z,98935
2017-10-06T13:15:15.640Z,98936
2017-10-06T13:17:43.709Z,98937
2017-10-06T13:20:11.792Z,98931
2017-10-06T13:22:39.877Z,98931
2017-10-06T13:25:07.956Z,98933
2017-10-06T13:27:36.803Z,98930
2017-10-06T13:30:04.896Z,98939
2017-10-06T13:32:32.993Z,98945
2017-10-06T13:35:01.100Z,98940
2017-10-06T13:37:29.289Z,98944
2017-10-06T13:39:57.404Z,98947
2017-10-06T13:42:25.665Z,98950
2017-10-06T13:44:53.760Z,98955
2017-10-06T13:47:21.845Z,98956
2017-10-06T13:49:50.701Z,98950
2017-10-06T13:52:18.784Z,98967
2017-10-06T13:54:46.864Z,98964
2017-10-06T13:57:14.948Z,98967
2017-10-06T13:59:43.800Z,98964
2017-10-06T14:02:12.593Z,98974
2017-10-06T14:04:40.688Z,98969
2017-10-06T14:07:08.764Z,98975
2017-10-06T14:09:36.856Z,98969
2017-10-06T14:12:05.716Z,98968
2017-10-06T14:14:33.792Z,98960
2017-10-06T14:17:02.614Z,98964
2017-10-06T14:19:31.452Z,98968
2017-10-06T14:22:00.554Z,98962
2017-10-06T14:24:28.632Z,98962
2017-10-06T14:26:56.721Z,98957
2017-10-06T14:29:26.481Z,98970
2017-10-06T14:31:54.572Z,98962
2017-10-06T14:34:22.650Z,98970
2017-10-06T14:36:50.733Z,98970
2017-10-06T14:39:18.821Z,98985
2017-10-06T14:41:48.545Z,98977
2017-10-06T14:44:17.390Z,98987
2017-10-06T14:46:45.497Z,98987
2017-10-06T14:49:13.578Z,98989
2017-10-06T14:51:42.441Z,99003
2017-10-06T14:54:10.528Z,98995
2017-10-06T14:56:38.608Z,98994
2017-10-06T14:59:06.692Z,99001
2017-10-06T15:01:35.556Z,98995
2017-10-06T15:04:04.436Z,98999
2017-10-06T15:06:32.508Z,99001
2017-10-06T15:09:01.312Z,98996
2017-10-06T15:11:29.392Z,99005
2017-10-06T15:13:57.476Z,99012
2017-10-06T15:16:25.609Z,99015
2017-10-06T15:18:53.711Z,99017
2017-10-06T15:21:21.788Z,99021
2017-10-06T15:23:49.968Z,99019
2017-10-06T15:26:18.045Z,99014
2017-10-06T15:28:46.892Z,99015
2017-10-06T15:31:24.885Z,99016
2017-10-06T15:33:52.965Z,99016
2017-10-06T15:36:21.057Z,99016
2017-10-06T15:38:49.140Z,99015
2017-10-06T15:41:17.232Z,99018
2017-10-06T15:43:46.217Z,99014
2017-10-06T15:46:14.332Z,99015
2017-10-06T15:48:42.478Z,99022
2017-10-06T15:51:11.336Z,99020
2017-10-06T15:53:39.420Z,99023
2017-10-06T15:56:07.512Z,99026
2017-10-06T15:58:36.364Z,99026
2017-10-06T16:01:04.458Z,99035
2017-10-06T16:03:32.536Z,99024
2017-10-06T16:06:00.769Z,99032
2017-10-06T16:08:28.863Z,99036
2017-10-06T16:10:56.949Z,99032
2017-10-06T16:13:25.125Z,99050
2017-10-06T16:15:53.284Z,99035
2017-10-06T16:18:21.522Z,99054
2017-10-06T16:20:49.635Z,99062
2017-10-06T16:23:18.759Z,99056
2017-10-06T16:25:47.848Z,99042
2017-10-06T16:28:15.947Z,99054
2017-10-06T16:30:44.791Z,99062
2017-10-06T16:33:12.892Z,99063
2017-10-06T16:35:40.968Z,99072
2017-10-06T16:38:09.817Z,99077
2017-10-06T16:40:37.905Z,99073
2017-10-06T16:43:05.985Z,99081
2017-10-06T16:45:35.087Z,99091
2017-10-06T16:48:03.188Z,99083
2017-10-06T16:50:32.048Z,99087
2017-10-06T16:53:00.122Z,99079
2017-10-06T16:55:28.209Z,99085
2017-10-06T16:57:57.045Z,99090
2017-10-06T17:00:25.128Z,99097
2017-10-06T17:02:53.213Z,99100
2017-10-06T17:05:21.330Z,99097
2017-10-06T17:07:50.172Z,99108
2017-10-06T17:10:18.269Z,99118
2017-10-06T17:12:46.352Z,99131
2017-10-06T17:15:15.192Z,99131
2017-10-06T17:17:43.285Z,99136
2017-10-06T17:20:11.352Z,99127
2017-10-06T17:22:39.451Z,99145
2017-10-06T17:25:07.528Z,99144
2017-10-06T17:27:35.616Z,99143
2017-10-06T17:30:04.473Z,99149
2017-10-06T17:32:32.574Z,99152
2017-10-06T17:35:01.432Z,99155
2017-10-06T17:37:29.529Z,99148
2017-10-06T17:39:57.625Z,99150
2017-10-06T17:42:26.480Z,99155
2017-10-06T17:44:54.583Z,99161
2017-10-06T17:47:22.665Z,99166
2017-10-06T17:49:50.760Z,99167
2017-10-06T17:52:18.841Z,99170
2017-10-06T17:54:46.932Z,99179
2017-10-06T17:57:15.011Z,99173
2017-10-06T17:59:43.104Z,99179
2017-10-06T18:02:11.181Z,99193
2017-10-06T18:04:39.268Z,99189
2017-10-06T18:07:08.109Z,99202
2017-10-06T18:09:36.188Z,99196
2017-10-06T18:12:04.260Z,99202
2017-10-06T18:14:32.360Z,99180
2017-10-06T18:17:00.444Z,99194
2017-10-06T18:19:29.293Z,99196
2017-10-06T18:21:57.380Z,99208
2017-10-06T18:24:25.456Z,99210
2017-10-06T18:26:53.540Z,99215
2017-10-06T18:29:21.612Z,99227
2017-10-06T18:31:50.589Z,99221
2017-10-06T18:34:18.654Z,99216
2017-10-06T18:36:46.748Z,99225
2017-10-06T18:39:14.826Z,99234
2017-10-06T18:41:43.701Z,99228
2017-10-06T18:44:11.794Z,99234
2017-10-06T18:46:40.656Z,99229
2017-10-06T18:49:08.739Z,99221
2017-10-06T18:51:36.823Z,99230
2017-10-06T18:54:05.690Z,99226
2017-10-06T18:56:33.772Z,99230
2017-10-06T18:59:01.885Z,99236
2017-10-06T19:01:29.960Z,99237
2017-10-06T19:03:58.049Z,99244
2017-10-06T19:06:26.896Z,99247
2017-10-06T19:08:54.981Z,99242
2017-10-06T19:11:23.969Z,99249
2017-10-06T19:13:52.827Z,99261
2017-10-06T19:16:20.907Z,99252
2017-10-06T19:18:49.020Z,99261
2017-10-06T19:21:17.864Z,99263
2017-10-06T19:23:45.939Z,99271
2017-10-06T19:26:14.085Z,99271
2017-10-06T19:28:42.160Z,99268
2017-10-06T19:31:10.244Z,99261
2017-10-06T19:33:38.324Z,99269
2017-10-06T19:36:06.412Z,99279
2017-10-06T19:38:34.509Z,99288
2017-10-06T19:41:03.376Z,99288
2017-10-06T19:43:31.451Z,99298
2017-10-06T19:45:59.536Z,99306
2017-10-06T19:48:27.641Z,99295
2017-10-06T19:50:55.729Z,99297
2017-10-06T19:53:23.817Z,99300
2017-10-06T19:55:51.900Z,99307
2017-10-06T19:58:19.983Z,99314
2017-10-06T20:00:48.067Z,99305
2017-10-06T20:03:16.168Z,99311
2017-10-06T20:05:45.018Z,99312
2017-10-06T20:08:13.109Z,99310
2017-10-06T20:10:41.185Z,99316
2017-10-06T20:13:10.048Z,99307
2017-10-06T20:15:38.148Z,99304
2017-10-06T20:18:06.232Z,99313
2017-10-06T20:20:35.090Z,99308
2017-10-06T20:23:03.172Z,99315
2017-10-06T20:25:31.252Z,99322
2017-10-06T20:27:59.328Z,99324
2017-10-06T20:30:27.405Z,99310
2017-10-06T20:32:56.651Z,99324
2017-10-06T20:35:25.547Z,99326
2017-10-06T20:37:53.654Z,99330
2017-10-06T20:40:21.739Z,99340
2017-10-06T20:42:49.824Z,99335
2017-10-06T20:45:18.668Z,99340
2017-10-06T20:47:46.756Z,99347
2017-10-06T20:50:14.850Z,99351
2017-10-06T20:52:43.712Z,99353
2017-10-06T20:55:11.821Z,99354
2017-10-06T20:57:39.908Z,99347
2017-10-06T21:00:07.984Z,99335
2017-10-06T21:02:36.080Z,99344
2017-10-06T21:05:04.916Z,99352
2017-10-06T21:07:32.993Z,99345
2017-10-06T21:10:01.079Z,99354
2017-10-06T21:12:29.916Z,99348
2017-10-06T21:14:58.001Z,99349
2017-10-06T21:17:26.096Z,99357
2017-10-06T21:19:54.180Z,99364
2017-10-06T21:22:23.029Z,99356
2017-10-06T21:24:52.044Z,99359
2017-10-06T21:27:20.131Z,99362
2017-10-06T21:29:48.217Z,99366
2017-10-06T21:32:17.060Z,99369
2017-10-06T21:34:45.156Z,99367
2017-10-06T21:37:13.236Z,99372
2017-10-06T21:39:41.317Z,99372
2017-10-06T21:42:10.161Z,99381
2017-10-06T21:44:38.244Z,99389
2017-10-06T21:47:06.321Z,99389
2017-10-06T21:49:34.415Z,99404
2017-10-06T21:52:02.498Z,99387
2017-10-06T21:54:31.356Z,99390
2017-10-06T21:56:59.474Z,99391
2017-10-06T21:59:28.324Z,99390
2017-10-06T22:01:56.395Z,99398
2017-10-06T22:04:24.488Z,99400
2017-10-06T22:06:52.560Z,99409
2017-10-06T22:09:20.640Z,99413
2017-10-06T22:11:48.708Z,99414
2017-10-06T22:14:16.793Z,99418
2017-10-06T22:16:45.644Z,99416
2017-10-06T22:19:13.749Z,99405
2017-10-06T22:21:41.829Z,99409
2017-10-06T22:24:10.705Z,99410
2017-10-06T22:26:38.775Z,99413
2017-10-06T22:29:06.852Z,99412
2017-10-06T22:31:34.932Z,99408
2017-10-06T22:34:03.789Z,99418
2017-10-06T22:36:31.860Z,99419
2017-10-06T22:38:59.934Z,99418
2017-10-06T22:41:28.007Z,99422
2017-10-06T22:43:56.083Z,99422
2017-10-06T22:46:24.152Z,99424
2017-10-06T22:48:52.248Z,99422
2017-10-06T22:51:20.319Z,99432
2017-10-06T22:53:48.405Z,99432
2017-10-06T22:56:17.243Z,99437
2017-10-06T22:58:45.327Z,99432
2017-10-06T23:01:13.403Z,99429
2017-10-06T23:03:41.478Z,99434
2017-10-06T23:06:09.553Z,99428
2017-10-06T23:08:37.639Z,99431
2017-10-06T23:11:05.720Z,99444
2017-10-06T23:13:33.791Z,99447
2017-10-06T23:16:01.906Z,99440
2017-10-06T23:18:29.991Z,99440
2017-10-06T23:20:58.828Z,99436
2017-10-06T23:23:26.907Z,99430
2017-10-06T23:25:55.739Z,99430
2017-10-06T23:28:24.584Z,99436
2017-10-06T23:30:52.659Z,99441
2017-10-06T23:33:20.734Z,99437
2017-10-06T23:35:49.568Z,99438
2017-10-06T23:38:17.644Z,99445
2017-10-06T23:40:45.711Z,99448
2017-10-06T23:43:13.792Z,99443
2017-10-06T23:45:41.879Z,99442
2017-10-06T23:48:09.954Z,99443
2017-10-06T23:50:38.028Z,99446
2017-10-06T23:53:06.095Z,99445
2017-10-06T23:55:34.175Z,99441
2017-10-06T23:58:02.260Z,99441
